sensor_id;sensor_type;location;lat;lon;timestamp;temperature;humidity
61672;DHT22;47572;0.00000000;0.00000000;2022-07-29T00:00:44;22.60;52.80
61672;DHT22;47572;0.00000000;0.00000000;2022-07-29T00:03:11;22.60;52.80
61672;DHT22;47572;0.00000000;0.00000000;2022-07-29T00:05:40;22.60;52.80
61672;DHT22;47572;0.00000000;0.00000000;2022-07-29T00:08:08;22.60;52.80
61672;DHT22;47572;0.00000000;0.00000000;2022-07-29T00:10:34;22.60;52.90
61672;DHT22;47572;0.00000000;0.00000000;2022-07-29T00:13:00;22.60;52.90
61672;DHT22;47572;0.00000000;0.00000000;2022-07-29T00:15:27;22.60;52.90
61672;DHT22;47572;0.00000000;0.00000000;2022-07-29T00:17:52;22.60;52.90
61672;DHT22;47572;0.00000000;0.00000000;2022-07-29T00:20:18;22.60;52.90
61672;DHT22;47572;0.00000000;0.00000000;2022-07-29T00:22:44;22.60;52.90
61672;DHT22;47572;0.00000000;0.00000000;2022-07-29T00:25:12;22.60;52.90
61672;DHT22;47572;0.00000000;0.00000000;2022-07-29T00:27:38;22.60;52.90
61672;DHT22;47572;0.00000000;0.00000000;2022-07-29T00:30:05;22.60;53.00
61672;DHT22;47572;0.00000000;0.00000000;2022-07-29T00:32:31;22.60;52.90
61672;DHT22;47572;0.00000000;0.00000000;2022-07-29T00:34:57;22.60;53.00
61672;DHT22;47572;0.00000000;0.00000000;2022-07-29T00:37:42;22.60;53.00
61672;DHT22;47572;0.00000000;0.00000000;2022-07-29T00:40:08;22.60;53.00
61672;DHT22;47572;0.00000000;0.00000000;2022-07-29T00:42:48;22.60;53.00
61672;DHT22;47572;0.00000000;0.00000000;2022-07-29T00:45:14;22.50;52.90
61672;DHT22;47572;0.00000000;0.00000000;2022-07-29T00:47:40;22.50;53.00
61672;DHT22;47572;0.00000000;0.00000000;2022-07-29T00:50:08;22.50;53.00
61672;DHT22;47572;0.00000000;0.00000000;2022-07-29T00:52:36;22.50;53.00
61672;DHT22;47572;0.00000000;0.00000000;2022-07-29T00:55:05;22.50;53.10
61672;DHT22;47572;0.00000000;0.00000000;2022-07-29T00:57:31;22.50;53.10
61672;DHT22;47572;0.00000000;0.00000000;2022-07-29T00:59:58;22.50;53.10
61672;DHT22;47572;0.00000000;0.00000000;2022-07-29T01:02:23;22.50;54.00
61672;DHT22;47572;0.00000000;0.00000000;2022-07-29T01:04:50;22.50;53.20
61672;DHT22;47572;0.00000000;0.00000000;2022-07-29T01:07:17;22.50;53.10
61672;DHT22;47572;0.00000000;0.00000000;2022-07-29T01:09:44;22.50;53.10
61672;DHT22;47572;0.00000000;0.00000000;2022-07-29T01:12:18;22.50;53.20
61672;DHT22;47572;0.00000000;0.00000000;2022-07-29T01:14:46;22.50;53.20
61672;DHT22;47572;0.00000000;0.00000000;2022-07-29T01:31:10;22.50;53.30
61672;DHT22;47572;0.00000000;0.00000000;2022-07-29T01:33:41;22.50;53.30
61672;DHT22;47572;0.00000000;0.00000000;2022-07-29T01:36:22;22.50;53.30
61672;DHT22;47572;0.00000000;0.00000000;2022-07-29T01:41:40;22.50;53.30
61672;DHT22;47572;0.00000000;0.00000000;2022-07-29T01:44:20;22.40;53.30
61672;DHT22;47572;0.00000000;0.00000000;2022-07-29T01:46:56;22.50;53.40
61672;DHT22;47572;0.00000000;0.00000000;2022-07-29T01:49:31;22.40;53.30
61672;DHT22;47572;0.00000000;0.00000000;2022-07-29T01:52:09;22.40;53.30
61672;DHT22;47572;0.00000000;0.00000000;2022-07-29T01:54:46;22.40;53.30
61672;DHT22;47572;0.00000000;0.00000000;2022-07-29T01:57:15;22.40;53.40
61672;DHT22;47572;0.00000000;0.00000000;2022-07-29T01:59:47;22.40;53.30
61672;DHT22;47572;0.00000000;0.00000000;2022-07-29T02:02:15;22.40;53.30
61672;DHT22;47572;0.00000000;0.00000000;2022-07-29T02:04:43;22.40;53.40
61672;DHT22;47572;0.00000000;0.00000000;2022-07-29T02:07:14;22.40;53.30
61672;DHT22;47572;0.00000000;0.00000000;2022-07-29T02:09:41;22.40;53.40
61672;DHT22;47572;0.00000000;0.00000000;2022-07-29T02:12:09;22.40;53.40
61672;DHT22;47572;0.00000000;0.00000000;2022-07-29T02:14:42;22.40;53.40
61672;DHT22;47572;0.00000000;0.00000000;2022-07-29T02:17:11;22.40;53.40
61672;DHT22;47572;0.00000000;0.00000000;2022-07-29T02:19:38;22.40;53.40
61672;DHT22;47572;0.00000000;0.00000000;2022-07-29T02:22:05;22.40;53.50
61672;DHT22;47572;0.00000000;0.00000000;2022-07-29T02:24:32;22.40;53.50
61672;DHT22;47572;0.00000000;0.00000000;2022-07-29T02:27:00;22.40;53.50
61672;DHT22;47572;0.00000000;0.00000000;2022-07-29T02:29:27;22.40;54.40
61672;DHT22;47572;0.00000000;0.00000000;2022-07-29T02:31:55;22.40;53.50
61672;DHT22;47572;0.00000000;0.00000000;2022-07-29T02:34:23;22.40;53.50
61672;DHT22;47572;0.00000000;0.00000000;2022-07-29T02:36:50;22.40;53.50
61672;DHT22;47572;0.00000000;0.00000000;2022-07-29T02:39:17;22.40;53.50
61672;DHT22;47572;0.00000000;0.00000000;2022-07-29T02:41:50;22.30;53.50
61672;DHT22;47572;0.00000000;0.00000000;2022-07-29T02:44:20;22.40;53.50
61672;DHT22;47572;0.00000000;0.00000000;2022-07-29T02:46:50;22.30;53.50
61672;DHT22;47572;0.00000000;0.00000000;2022-07-29T02:51:59;22.30;53.50
61672;DHT22;47572;0.00000000;0.00000000;2022-07-29T02:54:37;22.30;53.50
61672;DHT22;47572;0.00000000;0.00000000;2022-07-29T02:57:09;22.30;53.50
61672;DHT22;47572;0.00000000;0.00000000;2022-07-29T02:59:37;22.30;53.60
61672;DHT22;47572;0.00000000;0.00000000;2022-07-29T03:02:05;22.30;53.60
61672;DHT22;47572;0.00000000;0.00000000;2022-07-29T03:04:33;22.30;53.60
61672;DHT22;47572;0.00000000;0.00000000;2022-07-29T03:07:03;22.30;53.60
61672;DHT22;47572;0.00000000;0.00000000;2022-07-29T03:09:30;22.30;53.60
61672;DHT22;47572;0.00000000;0.00000000;2022-07-29T03:11:57;22.30;53.70
61672;DHT22;47572;0.00000000;0.00000000;2022-07-29T03:14:24;22.30;53.60
61672;DHT22;47572;0.00000000;0.00000000;2022-07-29T03:16:50;22.30;53.70
61672;DHT22;47572;0.00000000;0.00000000;2022-07-29T03:19:18;22.30;53.70
61672;DHT22;47572;0.00000000;0.00000000;2022-07-29T03:21:44;22.30;53.70
61672;DHT22;47572;0.00000000;0.00000000;2022-07-29T03:24:10;22.30;53.70
61672;DHT22;47572;0.00000000;0.00000000;2022-07-29T03:26:35;22.30;53.70
61672;DHT22;47572;0.00000000;0.00000000;2022-07-29T03:29:04;22.30;53.70
61672;DHT22;47572;0.00000000;0.00000000;2022-07-29T03:31:29;22.20;53.70
61672;DHT22;47572;0.00000000;0.00000000;2022-07-29T03:33:56;22.20;53.70
61672;DHT22;47572;0.00000000;0.00000000;2022-07-29T03:36:22;22.20;53.70
61672;DHT22;47572;0.00000000;0.00000000;2022-07-29T03:38:51;22.20;53.70
61672;DHT22;47572;0.00000000;0.00000000;2022-07-29T03:41:18;22.20;53.70
61672;DHT22;47572;0.00000000;0.00000000;2022-07-29T03:43:46;22.20;53.70
61672;DHT22;47572;0.00000000;0.00000000;2022-07-29T03:46:13;22.20;53.70
61672;DHT22;47572;0.00000000;0.00000000;2022-07-29T03:48:44;22.20;53.70
61672;DHT22;47572;0.00000000;0.00000000;2022-07-29T03:51:11;22.20;53.70
61672;DHT22;47572;0.00000000;0.00000000;2022-07-29T03:53:37;22.20;53.70
61672;DHT22;47572;0.00000000;0.00000000;2022-07-29T03:56:03;22.20;53.80
61672;DHT22;47572;0.00000000;0.00000000;2022-07-29T03:58:31;22.20;53.80
61672;DHT22;47572;0.00000000;0.00000000;2022-07-29T04:00:58;22.20;53.80
61672;DHT22;47572;0.00000000;0.00000000;2022-07-29T04:03:25;22.20;53.90
61672;DHT22;47572;0.00000000;0.00000000;2022-07-29T04:06:06;22.20;53.80
61672;DHT22;47572;0.00000000;0.00000000;2022-07-29T04:08:33;22.20;53.80
61672;DHT22;47572;0.00000000;0.00000000;2022-07-29T04:11:00;22.20;53.90
61672;DHT22;47572;0.00000000;0.00000000;2022-07-29T04:13:26;22.20;53.80
61672;DHT22;47572;0.00000000;0.00000000;2022-07-29T04:15:52;22.20;53.90
61672;DHT22;47572;0.00000000;0.00000000;2022-07-29T04:18:18;22.20;53.90
61672;DHT22;47572;0.00000000;0.00000000;2022-07-29T04:20:44;22.20;53.90
61672;DHT22;47572;0.00000000;0.00000000;2022-07-29T04:23:10;22.20;53.90
61672;DHT22;47572;0.00000000;0.00000000;2022-07-29T04:25:40;22.20;53.90
61672;DHT22;47572;0.00000000;0.00000000;2022-07-29T04:28:06;22.20;53.90
61672;DHT22;47572;0.00000000;0.00000000;2022-07-29T04:30:34;22.20;54.00
61672;DHT22;47572;0.00000000;0.00000000;2022-07-29T04:33:01;22.10;53.90
61672;DHT22;47572;0.00000000;0.00000000;2022-07-29T04:35:28;22.20;53.90
61672;DHT22;47572;0.00000000;0.00000000;2022-07-29T04:37:54;22.10;54.00
61672;DHT22;47572;0.00000000;0.00000000;2022-07-29T04:40:20;22.20;54.00
61672;DHT22;47572;0.00000000;0.00000000;2022-07-29T04:42:46;22.10;54.00
61672;DHT22;47572;0.00000000;0.00000000;2022-07-29T04:45:12;22.10;54.00
61672;DHT22;47572;0.00000000;0.00000000;2022-07-29T04:47:38;22.10;54.00
61672;DHT22;47572;0.00000000;0.00000000;2022-07-29T04:50:04;22.10;54.00
61672;DHT22;47572;0.00000000;0.00000000;2022-07-29T04:52:32;22.10;54.00
61672;DHT22;47572;0.00000000;0.00000000;2022-07-29T04:54:58;22.10;54.00
61672;DHT22;47572;0.00000000;0.00000000;2022-07-29T04:57:24;22.10;54.00
61672;DHT22;47572;0.00000000;0.00000000;2022-07-29T04:59:50;22.10;54.00
61672;DHT22;47572;0.00000000;0.00000000;2022-07-29T05:02:15;22.10;54.00
61672;DHT22;47572;0.00000000;0.00000000;2022-07-29T05:04:41;22.10;54.00
61672;DHT22;47572;0.00000000;0.00000000;2022-07-29T05:07:07;22.10;54.10
61672;DHT22;47572;0.00000000;0.00000000;2022-07-29T05:09:33;22.10;54.10
61672;DHT22;47572;0.00000000;0.00000000;2022-07-29T05:11:59;22.10;54.10
61672;DHT22;47572;0.00000000;0.00000000;2022-07-29T05:14:24;22.10;54.10
61672;DHT22;47572;0.00000000;0.00000000;2022-07-29T05:16:50;22.10;54.10
61672;DHT22;47572;0.00000000;0.00000000;2022-07-29T05:19:17;22.10;54.10
61672;DHT22;47572;0.00000000;0.00000000;2022-07-29T05:21:44;22.10;55.10
61672;DHT22;47572;0.00000000;0.00000000;2022-07-29T05:24:10;22.10;54.10
61672;DHT22;47572;0.00000000;0.00000000;2022-07-29T05:26:36;22.10;54.10
61672;DHT22;47572;0.00000000;0.00000000;2022-07-29T05:29:02;22.10;54.10
61672;DHT22;47572;0.00000000;0.00000000;2022-07-29T05:31:28;22.10;54.20
61672;DHT22;47572;0.00000000;0.00000000;2022-07-29T05:33:54;22.10;54.10
61672;DHT22;47572;0.00000000;0.00000000;2022-07-29T05:36:20;22.10;54.20
61672;DHT22;47572;0.00000000;0.00000000;2022-07-29T05:38:46;22.10;54.20
61672;DHT22;47572;0.00000000;0.00000000;2022-07-29T05:41:13;22.10;54.20
61672;DHT22;47572;0.00000000;0.00000000;2022-07-29T05:43:38;22.10;54.30
61672;DHT22;47572;0.00000000;0.00000000;2022-07-29T05:46:04;22.10;54.30
61672;DHT22;47572;0.00000000;0.00000000;2022-07-29T05:48:30;22.10;54.30
61672;DHT22;47572;0.00000000;0.00000000;2022-07-29T05:50:56;22.10;54.30
61672;DHT22;47572;0.00000000;0.00000000;2022-07-29T05:53:22;22.10;54.30
61672;DHT22;47572;0.00000000;0.00000000;2022-07-29T05:55:49;22.10;54.30
61672;DHT22;47572;0.00000000;0.00000000;2022-07-29T05:58:14;22.10;54.30
61672;DHT22;47572;0.00000000;0.00000000;2022-07-29T06:00:40;22.10;54.30
61672;DHT22;47572;0.00000000;0.00000000;2022-07-29T06:03:06;22.10;54.30
61672;DHT22;47572;0.00000000;0.00000000;2022-07-29T06:05:32;22.10;54.30
61672;DHT22;47572;0.00000000;0.00000000;2022-07-29T06:07:58;22.10;54.40
61672;DHT22;47572;0.00000000;0.00000000;2022-07-29T06:10:23;22.10;54.40
61672;DHT22;47572;0.00000000;0.00000000;2022-07-29T06:12:50;22.10;54.40
61672;DHT22;47572;0.00000000;0.00000000;2022-07-29T06:15:16;22.10;54.40
61672;DHT22;47572;0.00000000;0.00000000;2022-07-29T06:17:41;22.10;54.40
61672;DHT22;47572;0.00000000;0.00000000;2022-07-29T06:20:08;22.10;54.40
61672;DHT22;47572;0.00000000;0.00000000;2022-07-29T06:22:33;22.10;54.40
61672;DHT22;47572;0.00000000;0.00000000;2022-07-29T06:25:01;22.10;54.40
61672;DHT22;47572;0.00000000;0.00000000;2022-07-29T06:27:27;22.10;54.50
61672;DHT22;47572;0.00000000;0.00000000;2022-07-29T06:29:53;22.10;54.50
61672;DHT22;47572;0.00000000;0.00000000;2022-07-29T06:32:19;22.20;54.60
61672;DHT22;47572;0.00000000;0.00000000;2022-07-29T06:34:45;22.20;54.50
61672;DHT22;47572;0.00000000;0.00000000;2022-07-29T06:37:11;22.20;54.50
61672;DHT22;47572;0.00000000;0.00000000;2022-07-29T06:39:37;22.20;54.70
61672;DHT22;47572;0.00000000;0.00000000;2022-07-29T06:42:04;22.20;54.80
61672;DHT22;47572;0.00000000;0.00000000;2022-07-29T06:44:30;22.20;54.90
61672;DHT22;47572;0.00000000;0.00000000;2022-07-29T06:46:56;22.20;54.90
61672;DHT22;47572;0.00000000;0.00000000;2022-07-29T06:49:22;22.20;54.90
61672;DHT22;47572;0.00000000;0.00000000;2022-07-29T06:51:49;22.20;55.00
61672;DHT22;47572;0.00000000;0.00000000;2022-07-29T06:54:15;22.20;55.00
61672;DHT22;47572;0.00000000;0.00000000;2022-07-29T06:56:41;22.20;55.00
61672;DHT22;47572;0.00000000;0.00000000;2022-07-29T06:59:09;22.20;55.10
61672;DHT22;47572;0.00000000;0.00000000;2022-07-29T07:01:41;22.20;56.00
61672;DHT22;47572;0.00000000;0.00000000;2022-07-29T07:04:08;22.20;55.10
61672;DHT22;47572;0.00000000;0.00000000;2022-07-29T07:06:37;22.20;55.10
61672;DHT22;47572;0.00000000;0.00000000;2022-07-29T07:09:03;22.20;55.10
61672;DHT22;47572;0.00000000;0.00000000;2022-07-29T07:11:29;22.20;55.10
61672;DHT22;47572;0.00000000;0.00000000;2022-07-29T07:13:55;22.20;55.10
61672;DHT22;47572;0.00000000;0.00000000;2022-07-29T07:16:21;22.20;55.10
61672;DHT22;47572;0.00000000;0.00000000;2022-07-29T07:18:46;22.20;55.20
61672;DHT22;47572;0.00000000;0.00000000;2022-07-29T07:21:12;22.20;55.20
61672;DHT22;47572;0.00000000;0.00000000;2022-07-29T07:23:38;22.20;55.20
61672;DHT22;47572;0.00000000;0.00000000;2022-07-29T07:26:04;22.30;55.30
61672;DHT22;47572;0.00000000;0.00000000;2022-07-29T07:28:31;22.20;55.30
61672;DHT22;47572;0.00000000;0.00000000;2022-07-29T07:30:57;22.20;55.20
61672;DHT22;47572;0.00000000;0.00000000;2022-07-29T07:33:22;22.20;55.30
61672;DHT22;47572;0.00000000;0.00000000;2022-07-29T07:35:48;22.20;55.20
61672;DHT22;47572;0.00000000;0.00000000;2022-07-29T07:38:15;22.30;55.30
61672;DHT22;47572;0.00000000;0.00000000;2022-07-29T07:40:41;22.30;55.30
61672;DHT22;47572;0.00000000;0.00000000;2022-07-29T07:43:07;22.30;55.30
61672;DHT22;47572;0.00000000;0.00000000;2022-07-29T07:45:32;22.30;55.30
61672;DHT22;47572;0.00000000;0.00000000;2022-07-29T07:47:58;22.30;55.40
61672;DHT22;47572;0.00000000;0.00000000;2022-07-29T07:50:24;22.30;55.30
61672;DHT22;47572;0.00000000;0.00000000;2022-07-29T07:52:52;22.30;55.30
61672;DHT22;47572;0.00000000;0.00000000;2022-07-29T07:55:19;22.30;55.30
61672;DHT22;47572;0.00000000;0.00000000;2022-07-29T07:57:46;22.30;55.40
61672;DHT22;47572;0.00000000;0.00000000;2022-07-29T08:00:13;22.30;55.30
61672;DHT22;47572;0.00000000;0.00000000;2022-07-29T08:02:39;22.30;55.40
61672;DHT22;47572;0.00000000;0.00000000;2022-07-29T08:05:06;22.30;55.30
61672;DHT22;47572;0.00000000;0.00000000;2022-07-29T08:07:33;22.30;55.30
61672;DHT22;47572;0.00000000;0.00000000;2022-07-29T08:09:59;22.30;55.30
61672;DHT22;47572;0.00000000;0.00000000;2022-07-29T08:12:25;22.40;55.30
61672;DHT22;47572;0.00000000;0.00000000;2022-07-29T08:14:51;22.40;55.30
61672;DHT22;47572;0.00000000;0.00000000;2022-07-29T08:17:17;22.40;55.30
61672;DHT22;47572;0.00000000;0.00000000;2022-07-29T08:19:42;22.40;55.30
61672;DHT22;47572;0.00000000;0.00000000;2022-07-29T08:22:08;22.40;55.30
61672;DHT22;47572;0.00000000;0.00000000;2022-07-29T08:24:35;22.40;55.30
61672;DHT22;47572;0.00000000;0.00000000;2022-07-29T08:27:13;22.40;55.30
61672;DHT22;47572;0.00000000;0.00000000;2022-07-29T08:29:39;22.40;55.40
61672;DHT22;47572;0.00000000;0.00000000;2022-07-29T08:32:06;22.40;55.30
61672;DHT22;47572;0.00000000;0.00000000;2022-07-29T08:34:32;22.40;55.40
61672;DHT22;47572;0.00000000;0.00000000;2022-07-29T08:36:58;22.40;55.30
61672;DHT22;47572;0.00000000;0.00000000;2022-07-29T08:39:25;22.40;55.20
61672;DHT22;47572;0.00000000;0.00000000;2022-07-29T08:41:52;22.40;55.20
61672;DHT22;47572;0.00000000;0.00000000;2022-07-29T08:44:18;22.40;55.20
61672;DHT22;47572;0.00000000;0.00000000;2022-07-29T08:46:45;22.40;55.20
61672;DHT22;47572;0.00000000;0.00000000;2022-07-29T08:49:11;22.40;55.10
61672;DHT22;47572;0.00000000;0.00000000;2022-07-29T08:51:39;22.40;55.10
61672;DHT22;47572;0.00000000;0.00000000;2022-07-29T08:54:06;22.40;55.10
61672;DHT22;47572;0.00000000;0.00000000;2022-07-29T08:56:33;22.40;55.10
61672;DHT22;47572;0.00000000;0.00000000;2022-07-29T08:59:02;22.40;55.10
61672;DHT22;47572;0.00000000;0.00000000;2022-07-29T09:01:29;22.50;55.10
61672;DHT22;47572;0.00000000;0.00000000;2022-07-29T09:03:58;22.50;55.10
61672;DHT22;47572;0.00000000;0.00000000;2022-07-29T09:06:30;22.50;55.10
61672;DHT22;47572;0.00000000;0.00000000;2022-07-29T09:08:59;22.50;55.00
61672;DHT22;47572;0.00000000;0.00000000;2022-07-29T09:11:25;22.50;55.00
61672;DHT22;47572;0.00000000;0.00000000;2022-07-29T09:13:51;22.50;55.00
61672;DHT22;47572;0.00000000;0.00000000;2022-07-29T09:16:17;22.50;55.00
61672;DHT22;47572;0.00000000;0.00000000;2022-07-29T09:18:45;22.50;55.00
61672;DHT22;47572;0.00000000;0.00000000;2022-07-29T09:21:13;22.50;54.90
61672;DHT22;47572;0.00000000;0.00000000;2022-07-29T09:24:12;22.50;55.00
61672;DHT22;47572;0.00000000;0.00000000;2022-07-29T09:26:46;22.50;54.90
61672;DHT22;47572;0.00000000;0.00000000;2022-07-29T09:29:14;22.50;54.90
61672;DHT22;47572;0.00000000;0.00000000;2022-07-29T09:31:45;22.60;54.90
61672;DHT22;47572;0.00000000;0.00000000;2022-07-29T09:34:13;22.50;54.80
61672;DHT22;47572;0.00000000;0.00000000;2022-07-29T09:36:43;22.60;54.90
61672;DHT22;47572;0.00000000;0.00000000;2022-07-29T09:39:10;22.60;54.80
61672;DHT22;47572;0.00000000;0.00000000;2022-07-29T09:41:51;22.50;54.70
61672;DHT22;47572;0.00000000;0.00000000;2022-07-29T09:44:21;22.60;54.80
61672;DHT22;47572;0.00000000;0.00000000;2022-07-29T09:47:13;22.50;54.80
61672;DHT22;47572;0.00000000;0.00000000;2022-07-29T09:49:59;22.50;54.80
61672;DHT22;47572;0.00000000;0.00000000;2022-07-29T09:52:26;22.60;54.80
61672;DHT22;47572;0.00000000;0.00000000;2022-07-29T09:54:53;22.60;54.80
61672;DHT22;47572;0.00000000;0.00000000;2022-07-29T09:57:24;22.60;54.90
61672;DHT22;47572;0.00000000;0.00000000;2022-07-29T10:00:05;22.60;54.90
61672;DHT22;47572;0.00000000;0.00000000;2022-07-29T10:02:36;22.60;55.00
61672;DHT22;47572;0.00000000;0.00000000;2022-07-29T10:05:05;22.60;54.90
61672;DHT22;47572;0.00000000;0.00000000;2022-07-29T10:10:10;22.60;55.00
61672;DHT22;47572;0.00000000;0.00000000;2022-07-29T10:12:52;22.60;55.00
61672;DHT22;47572;0.00000000;0.00000000;2022-07-29T10:15:18;22.60;54.90
61672;DHT22;47572;0.00000000;0.00000000;2022-07-29T10:17:46;22.60;55.00
61672;DHT22;47572;0.00000000;0.00000000;2022-07-29T10:20:14;22.60;54.90
61672;DHT22;47572;0.00000000;0.00000000;2022-07-29T10:22:41;22.60;54.90
61672;DHT22;47572;0.00000000;0.00000000;2022-07-29T10:25:08;22.60;54.90
61672;DHT22;47572;0.00000000;0.00000000;2022-07-29T10:27:35;22.60;54.90
61672;DHT22;47572;0.00000000;0.00000000;2022-07-29T10:30:02;22.60;55.00
61672;DHT22;47572;0.00000000;0.00000000;2022-07-29T10:43:32;22.60;55.50
61672;DHT22;47572;0.00000000;0.00000000;2022-07-29T10:46:02;22.60;55.50
61672;DHT22;47572;0.00000000;0.00000000;2022-07-29T10:48:29;22.60;55.40
61672;DHT22;47572;0.00000000;0.00000000;2022-07-29T10:51:03;22.60;56.50
61672;DHT22;47572;0.00000000;0.00000000;2022-07-29T10:53:52;22.60;55.50
61672;DHT22;47572;0.00000000;0.00000000;2022-07-29T10:56:29;22.60;55.60
61672;DHT22;47572;0.00000000;0.00000000;2022-07-29T11:01:48;22.60;55.40
61672;DHT22;47572;0.00000000;0.00000000;2022-07-29T11:04:16;22.60;55.30
61672;DHT22;47572;0.00000000;0.00000000;2022-07-29T11:09:26;22.60;55.30
61672;DHT22;47572;0.00000000;0.00000000;2022-07-29T11:11:52;22.60;55.30
61672;DHT22;47572;0.00000000;0.00000000;2022-07-29T11:14:54;22.60;55.30
61672;DHT22;47572;0.00000000;0.00000000;2022-07-29T11:17:05;22.60;55.40
61672;DHT22;47572;0.00000000;0.00000000;2022-07-29T11:19:31;22.60;55.50
61672;DHT22;47572;0.00000000;0.00000000;2022-07-29T11:21:58;22.60;55.60
61672;DHT22;47572;0.00000000;0.00000000;2022-07-29T11:24:28;22.60;55.60
61672;DHT22;47572;0.00000000;0.00000000;2022-07-29T11:27:16;22.60;55.60
61672;DHT22;47572;0.00000000;0.00000000;2022-07-29T11:30:09;22.60;55.60
61672;DHT22;47572;0.00000000;0.00000000;2022-07-29T11:32:37;22.60;55.60
61672;DHT22;47572;0.00000000;0.00000000;2022-07-29T11:35:11;22.60;55.60
61672;DHT22;47572;0.00000000;0.00000000;2022-07-29T11:37:37;22.60;55.60
61672;DHT22;47572;0.00000000;0.00000000;2022-07-29T11:45:07;22.60;55.70
61672;DHT22;47572;0.00000000;0.00000000;2022-07-29T11:47:42;22.60;55.70
61672;DHT22;47572;0.00000000;0.00000000;2022-07-29T11:50:14;22.60;55.70
61672;DHT22;47572;0.00000000;0.00000000;2022-07-29T11:52:46;22.60;55.70
61672;DHT22;47572;0.00000000;0.00000000;2022-07-29T11:55:17;22.60;55.70
61672;DHT22;47572;0.00000000;0.00000000;2022-07-29T11:57:57;22.60;55.80
61672;DHT22;47572;0.00000000;0.00000000;2022-07-29T12:00:39;22.60;55.90
61672;DHT22;47572;0.00000000;0.00000000;2022-07-29T12:03:10;22.60;55.90
61672;DHT22;47572;0.00000000;0.00000000;2022-07-29T12:05:44;22.60;55.90
61672;DHT22;47572;0.00000000;0.00000000;2022-07-29T12:08:15;22.60;55.90
61672;DHT22;47572;0.00000000;0.00000000;2022-07-29T12:10:44;22.60;55.90
61672;DHT22;47572;0.00000000;0.00000000;2022-07-29T12:13:12;22.70;56.00
61672;DHT22;47572;0.00000000;0.00000000;2022-07-29T12:15:40;22.60;56.00
61672;DHT22;47572;0.00000000;0.00000000;2022-07-29T12:18:17;22.70;56.10
61672;DHT22;47572;0.00000000;0.00000000;2022-07-29T12:20:43;22.60;56.10
61672;DHT22;47572;0.00000000;0.00000000;2022-07-29T12:23:10;22.60;56.10
61672;DHT22;47572;0.00000000;0.00000000;2022-07-29T12:25:39;22.70;56.20
61672;DHT22;47572;0.00000000;0.00000000;2022-07-29T12:28:08;22.70;56.20
61672;DHT22;47572;0.00000000;0.00000000;2022-07-29T12:30:46;22.70;56.20
61672;DHT22;47572;0.00000000;0.00000000;2022-07-29T12:33:20;22.70;56.30
61672;DHT22;47572;0.00000000;0.00000000;2022-07-29T12:35:49;22.70;56.30
61672;DHT22;47572;0.00000000;0.00000000;2022-07-29T12:38:16;22.70;56.30
61672;DHT22;47572;0.00000000;0.00000000;2022-07-29T12:40:42;22.80;56.30
61672;DHT22;47572;0.00000000;0.00000000;2022-07-29T12:45:38;22.80;56.50
61672;DHT22;47572;0.00000000;0.00000000;2022-07-29T12:48:04;22.80;56.60
61672;DHT22;47572;0.00000000;0.00000000;2022-07-29T12:50:30;22.80;56.60
61672;DHT22;47572;0.00000000;0.00000000;2022-07-29T12:53:12;22.90;56.60
61672;DHT22;47572;0.00000000;0.00000000;2022-07-29T12:55:43;22.90;56.50
61672;DHT22;47572;0.00000000;0.00000000;2022-07-29T12:58:09;22.90;56.60
61672;DHT22;47572;0.00000000;0.00000000;2022-07-29T13:00:36;22.90;56.60
61672;DHT22;47572;0.00000000;0.00000000;2022-07-29T13:03:02;23.00;56.60
61672;DHT22;47572;0.00000000;0.00000000;2022-07-29T13:05:44;23.00;56.50
61672;DHT22;47572;0.00000000;0.00000000;2022-07-29T13:08:12;23.00;56.50
61672;DHT22;47572;0.00000000;0.00000000;2022-07-29T13:10:37;23.00;56.40
61672;DHT22;47572;0.00000000;0.00000000;2022-07-29T13:15:36;23.10;56.20
61672;DHT22;47572;0.00000000;0.00000000;2022-07-29T13:18:03;23.10;56.10
61672;DHT22;47572;0.00000000;0.00000000;2022-07-29T13:20:29;23.10;56.00
61672;DHT22;47572;0.00000000;0.00000000;2022-07-29T13:22:59;23.20;56.20
61672;DHT22;47572;0.00000000;0.00000000;2022-07-29T13:25:31;23.20;56.10
61672;DHT22;47572;0.00000000;0.00000000;2022-07-29T13:27:58;23.20;56.00
61672;DHT22;47572;0.00000000;0.00000000;2022-07-29T13:30:25;23.30;55.90
61672;DHT22;47572;0.00000000;0.00000000;2022-07-29T13:32:51;23.30;55.70
61672;DHT22;47572;0.00000000;0.00000000;2022-07-29T13:35:18;23.40;55.50
61672;DHT22;47572;0.00000000;0.00000000;2022-07-29T13:37:44;23.40;55.40
61672;DHT22;47572;0.00000000;0.00000000;2022-07-29T13:40:11;23.40;55.30
61672;DHT22;47572;0.00000000;0.00000000;2022-07-29T13:42:38;23.40;55.20
61672;DHT22;47572;0.00000000;0.00000000;2022-07-29T13:45:04;23.40;55.10
61672;DHT22;47572;0.00000000;0.00000000;2022-07-29T13:47:32;23.50;55.10
61672;DHT22;47572;0.00000000;0.00000000;2022-07-29T13:50:03;23.50;55.00
61672;DHT22;47572;0.00000000;0.00000000;2022-07-29T13:52:29;23.60;54.90
61672;DHT22;47572;0.00000000;0.00000000;2022-07-29T13:54:55;23.60;54.80
61672;DHT22;47572;0.00000000;0.00000000;2022-07-29T13:57:20;23.60;54.60
61672;DHT22;47572;0.00000000;0.00000000;2022-07-29T13:59:46;23.70;54.50
61672;DHT22;47572;0.00000000;0.00000000;2022-07-29T14:02:12;23.70;54.40
61672;DHT22;47572;0.00000000;0.00000000;2022-07-29T14:04:39;23.70;54.30
61672;DHT22;47572;0.00000000;0.00000000;2022-07-29T14:07:05;23.80;54.20
61672;DHT22;47572;0.00000000;0.00000000;2022-07-29T14:09:31;23.80;54.10
61672;DHT22;47572;0.00000000;0.00000000;2022-07-29T14:11:57;23.80;54.10
61672;DHT22;47572;0.00000000;0.00000000;2022-07-29T14:14:23;23.80;54.10
61672;DHT22;47572;0.00000000;0.00000000;2022-07-29T14:16:49;23.90;54.10
61672;DHT22;47572;0.00000000;0.00000000;2022-07-29T14:19:15;23.90;54.10
61672;DHT22;47572;0.00000000;0.00000000;2022-07-29T14:21:40;23.90;54.00
61672;DHT22;47572;0.00000000;0.00000000;2022-07-29T14:24:06;23.90;53.90
61672;DHT22;47572;0.00000000;0.00000000;2022-07-29T14:26:32;24.00;53.80
61672;DHT22;47572;0.00000000;0.00000000;2022-07-29T14:28:58;24.00;53.70